Hlavní strana
METAR-TAF:

METAR-TAF

Letiště :

Algeciras, Španělsko

zeměpisná šířka: 36-07-44N, zeměpisná délka: 05-26-28W, výška: 30 m

Aktuální stav počasí

Zpráva byla vytvořena před 21 minutami, v 09:00 UTC
Východoseverovýchodní vítr 7 kt, proměnlivý mezi severovýchodním a východním
Teplota 16°C
Vlhkost vzduchu 100%
Tlak 1023 hPa
Viditelnost 10 km a více
Skoro jasno ve výšce 1200 ft
Oblačno až skoro zataženo ve výšce 1600 ft
Zataženo ve výšce 2000 ft

METAR: LEAG 060900Z AUTO 07007KT 040V100 9999 FEW012 BKN016 OVC020 16/16 Q1023

Čas: 11:21 (09:21 UTC)


TAF: chybějící

Stav a předpovědi počasí z více než 4 000 letišť (zprávy METAR a TAF).

Červené a žluté tečky na mapě představují dostupné meteorologické stanice.

Když kurzor umístíte na tečku, zobrazí se název stanice.

Pak kliknutím zobrazíte stav a předpověď počasí.

Chcete-li změnit mapu, kliknutím na zelené tlačítko se znaménkem +mapu přiblížíte, kliknutím na zelené tlačítko se znaménkem – mapu oddálíte a kliknutím na zelené šipky přejdete na sousední mapy.


METAR-TAF: